createdAt,value
2023-03-06T00:00:59.374Z,8.10
2023-03-06T00:03:28.027Z,12.33
2023-03-06T00:05:57.326Z,8.70
2023-03-06T00:08:26.731Z,10.27
2023-03-06T00:10:54.155Z,8.57
2023-03-06T00:13:21.794Z,10.57
2023-03-06T00:15:49.381Z,9.73
2023-03-06T00:18:19.725Z,9.33
2023-03-06T00:20:46.984Z,10.00
2023-03-06T00:23:14.217Z,7.87
2023-03-06T00:25:45.754Z,9.13
2023-03-06T00:28:14.790Z,8.47
2023-03-06T00:30:42.795Z,8.97
2023-03-06T00:33:10.793Z,9.63
2023-03-06T00:35:41.523Z,9.07
2023-03-06T00:38:11.416Z,9.57
2023-03-06T00:40:38.628Z,7.87
2023-03-06T00:43:05.927Z,7.37
2023-03-06T00:45:33.230Z,10.80
2023-03-06T00:48:00.620Z,9.30
2023-03-06T00:50:28.101Z,9.33
2023-03-06T00:52:55.805Z,9.30
2023-03-06T00:55:25.243Z,7.13
2023-03-06T00:57:52.423Z,7.73
2023-03-06T01:00:20.718Z,9.63
2023-03-06T01:02:50.102Z,8.83
2023-03-06T01:05:17.706Z,5.67
2023-03-06T01:07:45.150Z,7.83
2023-03-06T01:10:12.886Z,8.37
2023-03-06T01:12:41.543Z,8.63
2023-03-06T01:15:10.622Z,7.30
2023-03-06T01:17:38.267Z,8.07
2023-03-06T01:20:06.418Z,7.73
2023-03-06T01:22:34.227Z,5.73
2023-03-06T01:25:01.519Z,7.83
2023-03-06T01:27:28.747Z,6.27
2023-03-06T01:29:56.147Z,13.50
2023-03-06T01:32:23.619Z,8.70
2023-03-06T01:34:51.082Z,11.20
2023-03-06T01:37:18.514Z,12.53
2023-03-06T01:39:45.932Z,7.50
2023-03-06T01:42:13.645Z,11.57
2023-03-06T01:45:05.625Z,7.90
2023-03-06T01:47:35.653Z,7.93
2023-03-06T01:50:03.984Z,7.60
2023-03-06T01:52:42.011Z,9.23
2023-03-06T01:55:15.782Z,7.30
2023-03-06T01:57:46.632Z,7.63
2023-03-06T02:00:15.614Z,10.83
2023-03-06T02:03:02.598Z,8.63
2023-03-06T02:05:30.113Z,8.77
2023-03-06T02:07:57.988Z,7.77
2023-03-06T02:10:25.789Z,10.83
2023-03-06T02:12:53.702Z,6.30
2023-03-06T02:15:24.523Z,9.97
2023-03-06T02:17:54.032Z,8.13
2023-03-06T02:20:34.049Z,9.23
2023-03-06T02:23:13.593Z,6.27
2023-03-06T02:25:48.202Z,6.33
2023-03-06T02:28:21.817Z,11.07
2023-03-06T02:30:51.263Z,8.27
2023-03-06T02:33:20.847Z,14.30
2023-03-06T02:35:54.274Z,10.23
2023-03-06T02:38:27.519Z,8.90
2023-03-06T02:40:57.898Z,5.67
2023-03-06T02:43:31.576Z,7.83
2023-03-06T02:45:58.965Z,6.90
2023-03-06T02:48:26.600Z,7.93
2023-03-06T02:50:54.188Z,9.00
2023-03-06T02:53:21.691Z,7.73
2023-03-06T02:55:49.696Z,9.20
2023-03-06T02:58:19.621Z,8.13
2023-03-06T03:00:48.910Z,8.20
2023-03-06T03:03:17.655Z,6.90
2023-03-06T03:05:46.207Z,7.23
2023-03-06T03:08:22.653Z,8.27
2023-03-06T03:10:53.329Z,10.10
2023-03-06T03:13:20.761Z,5.57
2023-03-06T03:16:04.046Z,6.57
2023-03-06T03:18:31.454Z,7.10
2023-03-06T03:20:59.155Z,6.37
2023-03-06T03:23:27.120Z,9.43
2023-03-06T03:26:13.244Z,7.73
2023-03-06T03:28:44.698Z,9.33
2023-03-06T03:31:14.480Z,9.37
2023-03-06T03:33:42.607Z,7.97
2023-03-06T03:36:10.655Z,8.13
2023-03-06T03:38:41.856Z,8.97
2023-03-06T03:41:09.158Z,11.43
2023-03-06T03:43:36.894Z,7.20
2023-03-06T03:46:05.887Z,8.23
2023-03-06T03:48:33.536Z,9.43
2023-03-06T03:51:12.796Z,10.33
2023-03-06T03:53:44.490Z,10.40
2023-03-06T03:56:13.831Z,8.90
2023-03-06T03:58:50.441Z,13.13
2023-03-06T04:01:17.940Z,7.73
2023-03-06T04:03:45.474Z,7.37
2023-03-06T04:06:14.862Z,8.33
2023-03-06T04:08:42.210Z,8.30
2023-03-06T04:11:10.125Z,7.10
2023-03-06T04:13:37.388Z,9.87
2023-03-06T04:16:06.365Z,9.80
2023-03-06T04:18:35.678Z,10.60
2023-03-06T04:21:05.893Z,8.83
2023-03-06T04:23:33.361Z,10.13
2023-03-06T04:26:00.830Z,12.07
2023-03-06T04:28:28.526Z,8.70
2023-03-06T04:30:56.197Z,10.17
2023-03-06T04:33:23.784Z,9.87
2023-03-06T04:35:51.076Z,8.20
2023-03-06T04:38:24.178Z,7.60
2023-03-06T04:40:51.735Z,10.20
2023-03-06T04:43:19.247Z,10.93
2023-03-06T04:45:46.535Z,9.23
2023-03-06T04:48:16.827Z,9.50
2023-03-06T04:50:44.891Z,11.07
2023-03-06T04:53:14.381Z,8.27
2023-03-06T04:55:41.690Z,10.43
2023-03-06T04:58:11.637Z,9.77
2023-03-06T05:00:38.905Z,10.87
2023-03-06T05:03:06.117Z,9.03
2023-03-06T05:05:33.711Z,12.33
2023-03-06T05:08:00.933Z,10.93
2023-03-06T05:10:29.086Z,11.20
2023-03-06T05:12:56.410Z,11.23
2023-03-06T05:15:23.629Z,10.17
2023-03-06T05:17:51.058Z,10.80
2023-03-06T05:20:18.464Z,8.67
2023-03-06T05:22:45.903Z,12.00
2023-03-06T05:25:13.251Z,9.20
2023-03-06T05:27:40.714Z,8.47
2023-03-06T05:30:11.187Z,10.50
2023-03-06T05:32:38.761Z,11.93
2023-03-06T05:35:06.557Z,13.53
2023-03-06T05:37:34.130Z,9.37
2023-03-06T05:40:04.968Z,13.27
2023-03-06T05:42:32.244Z,9.97
2023-03-06T05:44:59.647Z,10.97
2023-03-06T05:47:26.938Z,10.93
2023-03-06T05:49:54.290Z,11.90
2023-03-06T05:52:21.557Z,11.47
2023-03-06T05:54:53.670Z,10.70
2023-03-06T05:57:22.396Z,15.93
2023-03-06T05:59:50.793Z,12.60
2023-03-06T06:02:19.129Z,15.43
2023-03-06T06:04:46.810Z,18.53
2023-03-06T06:07:16.192Z,13.83
2023-03-06T06:09:45.590Z,14.67
2023-03-06T06:12:15.414Z,12.63
2023-03-06T06:14:42.773Z,12.90
2023-03-06T06:17:12.472Z,14.30
2023-03-06T06:19:39.907Z,21.23
2023-03-06T06:22:07.735Z,15.07
2023-03-06T06:24:34.984Z,17.90
2023-03-06T06:27:03.941Z,18.93
2023-03-06T06:29:31.606Z,16.27
2023-03-06T06:31:59.947Z,15.90
2023-03-06T06:34:28.426Z,15.00
2023-03-06T06:36:55.994Z,13.53
2023-03-06T06:39:24.382Z,15.17
2023-03-06T06:42:09.624Z,16.50
2023-03-06T06:44:40.530Z,12.50
2023-03-06T06:47:25.320Z,14.00
2023-03-06T06:49:55.397Z,16.20
2023-03-06T06:52:24.594Z,18.57
2023-03-06T06:54:52.904Z,15.37
2023-03-06T06:57:20.636Z,18.73
2023-03-06T06:59:48.033Z,16.70
2023-03-06T07:02:16.496Z,13.60
2023-03-06T07:05:00.757Z,14.03
2023-03-06T07:07:33.380Z,13.97
2023-03-06T07:10:01.107Z,12.97
2023-03-06T07:12:28.561Z,18.43
2023-03-06T07:14:55.976Z,14.60
2023-03-06T07:17:23.461Z,14.23
2023-03-06T07:19:51.422Z,17.77
2023-03-06T07:22:18.777Z,18.00
2023-03-06T07:24:46.213Z,17.73
2023-03-06T07:27:13.554Z,17.90
2023-03-06T07:29:43.541Z,16.37
2023-03-06T07:32:11.526Z,15.90
2023-03-06T07:34:38.994Z,16.27
2023-03-06T07:37:06.458Z,15.80
2023-03-06T07:39:33.953Z,16.07
2023-03-06T07:42:01.429Z,15.60
2023-03-06T07:44:28.823Z,16.03
2023-03-06T07:46:56.321Z,13.57
2023-03-06T07:49:23.729Z,14.90
2023-03-06T07:51:51.101Z,15.13
2023-03-06T07:54:18.603Z,16.83
2023-03-06T07:56:46.034Z,16.80
2023-03-06T07:59:13.426Z,16.23
2023-03-06T08:01:41.044Z,17.37
2023-03-06T08:04:08.482Z,18.37
2023-03-06T08:06:36.319Z,18.67
2023-03-06T08:09:03.969Z,18.23
2023-03-06T08:11:33.190Z,19.47
2023-03-06T08:14:01.022Z,22.97
2023-03-06T08:16:31.531Z,23.30
2023-03-06T08:18:59.076Z,17.57
2023-03-06T08:21:28.550Z,19.57
2023-03-06T08:23:56.821Z,19.43
2023-03-06T08:26:27.930Z,18.30
2023-03-06T08:28:56.998Z,18.60
2023-03-06T08:31:37.236Z,20.27
2023-03-06T08:34:07.407Z,16.73
2023-03-06T08:36:34.931Z,18.73
2023-03-06T08:39:03.452Z,21.47
2023-03-06T08:41:31.666Z,20.70
2023-03-06T08:43:59.044Z,17.63
2023-03-06T08:46:28.368Z,17.83
2023-03-06T08:48:56.676Z,18.03
2023-03-06T08:51:24.502Z,17.63
2023-03-06T08:53:52.446Z,18.37
2023-03-06T08:56:22.836Z,20.53
2023-03-06T08:58:51.082Z,18.13
2023-03-06T09:01:24.710Z,18.90
2023-03-06T09:03:54.979Z,16.03
2023-03-06T09:06:23.498Z,15.77
2023-03-06T09:08:52.123Z,16.17
2023-03-06T09:11:21.218Z,18.17
2023-03-06T09:13:49.082Z,17.30
2023-03-06T09:16:16.718Z,18.10
2023-03-06T09:18:44.126Z,13.47
2023-03-06T09:21:11.992Z,16.70
2023-03-06T09:23:39.662Z,17.27
2023-03-06T09:26:08.418Z,16.50
2023-03-06T09:28:38.810Z,16.77
2023-03-06T09:31:15.451Z,14.57
2023-03-06T09:33:43.026Z,18.30
2023-03-06T09:36:18.819Z,15.23
2023-03-06T09:38:48.161Z,16.70
2023-03-06T09:41:26.396Z,16.50
2023-03-06T09:44:04.721Z,14.13
2023-03-06T09:46:46.231Z,14.23
2023-03-06T09:49:23.020Z,16.03
2023-03-06T09:52:12.004Z,18.97
2023-03-06T09:55:22.250Z,25.00
2023-03-06T09:57:58.766Z,22.63
2023-03-06T10:01:01.978Z,18.10
2023-03-06T10:03:50.813Z,14.43
2023-03-06T10:06:22.794Z,15.20
2023-03-06T10:09:01.315Z,15.87
2023-03-06T10:11:37.808Z,14.50
2023-03-06T10:14:40.707Z,15.47
2023-03-06T10:17:18.357Z,16.80
2023-03-06T10:19:47.706Z,14.50
2023-03-06T10:22:46.076Z,15.77
2023-03-06T10:25:36.021Z,16.90
2023-03-06T10:28:10.589Z,14.87
2023-03-06T10:30:59.920Z,16.47
2023-03-06T10:34:05.134Z,14.03
2023-03-06T10:36:32.379Z,14.83
2023-03-06T10:39:00.110Z,14.80
2023-03-06T10:41:31.461Z,14.07
2023-03-06T10:44:05.187Z,14.60
2023-03-06T10:46:39.256Z,13.80
2023-03-06T10:49:27.239Z,14.50
2023-03-06T10:52:01.914Z,15.57
2023-03-06T10:54:35.874Z,17.13
2023-03-06T10:57:28.641Z,18.93
2023-03-06T11:00:22.623Z,15.23
2023-03-06T11:03:16.216Z,18.37
2023-03-06T11:06:10.004Z,20.00
2023-03-06T11:08:40.114Z,15.03
2023-03-06T11:11:11.740Z,16.97
2023-03-06T11:13:41.926Z,17.93
2023-03-06T11:16:18.384Z,16.63
2023-03-06T11:19:01.333Z,20.20
2023-03-06T11:21:35.686Z,16.83
2023-03-06T11:24:19.059Z,14.07
2023-03-06T11:26:56.530Z,18.33
2023-03-06T11:29:42.447Z,12.57
2023-03-06T11:32:29.161Z,14.83
2023-03-06T11:35:03.231Z,12.63
2023-03-06T11:37:45.739Z,12.03
2023-03-06T11:40:28.545Z,12.60
2023-03-06T11:43:00.683Z,11.43
2023-03-06T11:45:42.450Z,12.87
2023-03-06T11:48:18.571Z,12.07
2023-03-06T11:50:55.461Z,12.05
2023-03-06T11:53:30.291Z,11.32
2023-03-06T11:56:14.637Z,17.02
2023-03-06T11:59:07.722Z,11.27
2023-03-06T12:01:50.305Z,11.53
2023-03-06T12:05:05.050Z,12.15
2023-03-06T12:07:33.815Z,11.47
2023-03-06T12:10:24.056Z,20.08
2023-03-06T12:13:03.222Z,20.53
2023-03-06T12:16:08.187Z,10.50
2023-03-06T12:18:49.953Z,12.02
2023-03-06T12:21:48.088Z,14.60
2023-03-06T12:24:38.080Z,11.13
2023-03-06T12:27:40.768Z,11.32
2023-03-06T12:30:38.932Z,11.80
2023-03-06T12:33:33.842Z,12.07
2023-03-06T12:36:29.764Z,10.95
2023-03-06T12:39:18.051Z,11.87
2023-03-06T12:41:59.222Z,11.87
2023-03-06T12:44:48.312Z,11.10
2023-03-06T12:47:19.793Z,11.83
2023-03-06T12:49:54.688Z,12.73
2023-03-06T12:52:31.512Z,12.18
2023-03-06T12:55:01.323Z,12.27
2023-03-06T12:57:28.763Z,10.65
2023-03-06T12:59:56.326Z,11.67
2023-03-06T13:02:50.071Z,10.43
2023-03-06T13:05:43.935Z,13.13
2023-03-06T13:08:26.266Z,18.37
2023-03-06T13:11:47.319Z,16.80
2023-03-06T13:14:24.741Z,13.68
2023-03-06T13:16:52.520Z,11.23
2023-03-06T13:19:25.584Z,11.73
2023-03-06T13:21:55.861Z,9.40
2023-03-06T13:24:25.429Z,10.53
2023-03-06T13:27:04.721Z,8.87
2023-03-06T13:29:35.953Z,8.33
2023-03-06T13:32:04.560Z,8.98
2023-03-06T13:34:31.922Z,8.80
2023-03-06T13:37:23.360Z,10.30
2023-03-06T13:40:00.229Z,8.63
2023-03-06T13:42:42.815Z,8.97
2023-03-06T13:45:24.955Z,10.00
2023-03-06T13:48:33.700Z,9.55
2023-03-06T13:50:46.151Z,9.77
2023-03-06T13:53:35.939Z,11.07
2023-03-06T13:56:28.989Z,9.20
2023-03-06T13:59:19.116Z,10.80
2023-03-06T14:01:59.358Z,9.03
2023-03-06T14:04:57.709Z,10.07
2023-03-06T14:07:29.209Z,10.13
2023-03-06T14:10:00.179Z,9.60
2023-03-06T14:12:35.219Z,9.97
2023-03-06T14:15:12.131Z,11.67
2023-03-06T14:18:02.203Z,9.77
2023-03-06T14:20:44.431Z,8.13
2023-03-06T14:23:32.269Z,7.77
2023-03-06T14:26:22.554Z,9.60
2023-03-06T14:28:59.896Z,9.07
2023-03-06T14:31:42.925Z,9.03
2023-03-06T14:34:23.932Z,7.77
2023-03-06T14:36:58.080Z,9.13
2023-03-06T14:39:38.099Z,9.13
2023-03-06T14:42:07.666Z,8.37
2023-03-06T14:44:35.283Z,9.13
2023-03-06T14:47:33.631Z,9.93
2023-03-06T14:50:21.444Z,10.43
2023-03-06T14:52:51.996Z,12.60
2023-03-06T14:55:22.475Z,9.50
2023-03-06T14:57:56.854Z,9.83
2023-03-06T15:00:33.353Z,9.73
2023-03-06T15:03:02.008Z,10.07
2023-03-06T15:05:30.701Z,9.57
2023-03-06T15:08:04.154Z,8.80
2023-03-06T15:10:34.003Z,12.33
2023-03-06T15:13:22.167Z,9.17
2023-03-06T15:15:58.787Z,11.07
2023-03-06T15:18:36.126Z,10.40
2023-03-06T15:21:10.482Z,9.50
2023-03-06T15:23:40.755Z,8.97
2023-03-06T15:26:36.838Z,9.70
2023-03-06T15:29:11.040Z,9.53
2023-03-06T15:31:40.831Z,7.17
2023-03-06T15:34:12.246Z,7.23
2023-03-06T15:36:44.050Z,6.20
2023-03-06T15:39:34.265Z,6.83
2023-03-06T15:42:07.943Z,6.13
2023-03-06T15:44:35.411Z,7.73
2023-03-06T15:47:08.724Z,6.73
2023-03-06T15:49:38.402Z,7.43
2023-03-06T15:52:09.634Z,6.40
2023-03-06T15:54:37.140Z,8.43
2023-03-06T15:57:07.586Z,7.60
2023-03-06T15:59:42.798Z,7.50
2023-03-06T16:02:15.328Z,8.90
2023-03-06T16:04:43.549Z,11.17
2023-03-06T16:07:11.689Z,11.63
2023-03-06T16:09:43.232Z,11.03
2023-03-06T16:12:19.683Z,12.30
2023-03-06T16:14:48.550Z,8.77
2023-03-06T16:17:16.831Z,9.20
2023-03-06T16:19:44.490Z,11.60
2023-03-06T16:22:11.971Z,9.53
2023-03-06T16:24:39.431Z,9.87
2023-03-06T16:27:07.023Z,11.20
2023-03-06T16:29:35.192Z,11.50
2023-03-06T16:32:03.157Z,9.90
2023-03-06T16:34:30.626Z,9.20
2023-03-06T16:36:58.016Z,11.20
2023-03-06T16:39:25.405Z,9.37
2023-03-06T16:41:52.959Z,10.03
2023-03-06T16:44:20.965Z,8.97
2023-03-06T16:46:50.038Z,10.13
2023-03-06T16:49:22.938Z,11.37
2023-03-06T16:51:51.205Z,10.00
2023-03-06T16:54:19.757Z,9.90
2023-03-06T16:56:47.229Z,10.67
2023-03-06T16:59:14.707Z,12.63
2023-03-06T17:01:45.106Z,10.87
2023-03-06T17:04:12.742Z,9.73
2023-03-06T17:06:41.480Z,11.90
2023-03-06T17:09:10.753Z,11.57
2023-03-06T17:11:43.402Z,11.20
2023-03-06T17:14:10.904Z,11.10
2023-03-06T17:16:40.277Z,11.33
2023-03-06T17:19:08.114Z,10.50
2023-03-06T17:21:38.178Z,10.90
2023-03-06T17:24:06.144Z,10.43
2023-03-06T17:26:33.570Z,13.30
2023-03-06T17:29:00.755Z,12.80
2023-03-06T17:31:28.989Z,12.97
2023-03-06T17:34:00.378Z,12.37
2023-03-06T17:36:29.485Z,11.80
2023-03-06T17:38:58.560Z,12.60
2023-03-06T17:41:26.254Z,13.20
2023-03-06T17:43:58.271Z,14.40
2023-03-06T17:46:25.956Z,12.23
2023-03-06T17:48:53.390Z,12.03
2023-03-06T17:51:20.720Z,13.37
2023-03-06T17:53:49.198Z,12.57
2023-03-06T17:56:16.517Z,14.30
2023-03-06T17:58:44.171Z,12.97
2023-03-06T18:01:21.881Z,13.13
2023-03-06T18:03:50.758Z,15.07
2023-03-06T18:06:19.176Z,14.60
2023-03-06T18:08:47.139Z,16.43
2023-03-06T18:11:15.375Z,15.07
2023-03-06T18:13:44.557Z,14.27
2023-03-06T18:16:14.481Z,15.20
2023-03-06T18:18:42.018Z,15.37
2023-03-06T18:21:11.714Z,14.57
2023-03-06T18:23:40.783Z,14.43
2023-03-06T18:26:11.504Z,17.43
2023-03-06T18:28:42.328Z,14.60
2023-03-06T18:31:36.755Z,13.93
2023-03-06T18:34:10.483Z,15.10
2023-03-06T18:36:38.330Z,13.50
2023-03-06T18:39:08.738Z,16.10
2023-03-06T18:41:36.614Z,16.70
2023-03-06T18:44:04.903Z,15.77
2023-03-06T18:46:35.366Z,15.17
2023-03-06T18:49:03.524Z,14.87
2023-03-06T18:51:31.094Z,16.90
2023-03-06T18:54:00.069Z,16.17
2023-03-06T18:56:27.578Z,18.90
2023-03-06T18:58:55.491Z,16.77
2023-03-06T19:01:23.446Z,15.23
2023-03-06T19:03:50.928Z,14.83
2023-03-06T19:06:18.656Z,17.77
2023-03-06T19:08:46.125Z,18.23
2023-03-06T19:11:16.040Z,18.00
2023-03-06T19:13:44.160Z,19.33
2023-03-06T19:16:21.694Z,19.50
2023-03-06T19:18:49.323Z,19.23
2023-03-06T19:21:19.408Z,17.57
2023-03-06T19:23:47.390Z,20.17
2023-03-06T19:26:16.138Z,18.07
2023-03-06T19:28:43.733Z,17.53
2023-03-06T19:31:14.372Z,17.77
2023-03-06T19:33:42.747Z,19.23
2023-03-06T19:36:12.449Z,17.90
2023-03-06T19:38:40.303Z,16.43
2023-03-06T19:41:13.231Z,18.53
2023-03-06T19:43:42.181Z,18.87
2023-03-06T19:46:14.562Z,16.57
2023-03-06T19:48:42.486Z,17.77
2023-03-06T19:51:10.602Z,17.57
2023-03-06T19:53:39.545Z,18.13
2023-03-06T19:56:09.753Z,21.23
2023-03-06T19:58:37.479Z,16.70
2023-03-06T20:01:11.120Z,15.63
2023-03-06T20:03:39.522Z,17.47
2023-03-06T20:06:10.485Z,16.50
2023-03-06T20:08:38.267Z,15.40
2023-03-06T20:11:05.562Z,16.93
2023-03-06T20:13:32.968Z,16.57
2023-03-06T20:16:03.831Z,19.37
2023-03-06T20:18:31.503Z,16.87
2023-03-06T20:21:00.237Z,19.90
2023-03-06T20:23:28.392Z,16.37
2023-03-06T20:25:55.786Z,19.03
2023-03-06T20:28:23.594Z,17.90
2023-03-06T20:30:50.982Z,17.70
2023-03-06T20:33:19.514Z,18.20
2023-03-06T20:35:46.786Z,17.93
2023-03-06T20:38:15.403Z,17.57
2023-03-06T20:40:43.215Z,16.37
2023-03-06T20:43:10.952Z,18.03
2023-03-06T20:45:38.344Z,17.77
2023-03-06T20:48:06.068Z,17.63
2023-03-06T20:50:33.455Z,16.90
2023-03-06T20:53:00.728Z,18.57
2023-03-06T20:55:27.939Z,19.67
2023-03-06T20:57:55.384Z,17.43
2023-03-06T21:00:22.614Z,17.27
2023-03-06T21:02:50.041Z,17.60
2023-03-06T21:05:17.312Z,16.47
2023-03-06T21:07:44.570Z,17.37
2023-03-06T21:10:12.056Z,17.87
2023-03-06T21:12:39.966Z,14.90
2023-03-06T21:15:07.812Z,18.43
2023-03-06T21:17:35.060Z,16.70
2023-03-06T21:20:02.373Z,16.77
2023-03-06T21:22:30.220Z,17.40
2023-03-06T21:24:57.451Z,17.80
2023-03-06T21:27:24.917Z,18.60
2023-03-06T21:29:52.182Z,16.90
2023-03-06T21:32:19.453Z,16.10
2023-03-06T21:34:46.751Z,17.50
2023-03-06T21:37:14.029Z,17.57
2023-03-06T21:39:41.356Z,17.33
2023-03-06T21:42:08.699Z,16.40
2023-03-06T21:44:36.231Z,16.83
2023-03-06T21:47:03.763Z,15.27
2023-03-06T21:49:31.051Z,15.43
2023-03-06T21:51:58.430Z,16.20
2023-03-06T21:54:26.936Z,16.00
2023-03-06T21:56:54.155Z,17.47
2023-03-06T21:59:21.353Z,17.80
2023-03-06T22:01:48.877Z,17.93
2023-03-06T22:04:16.210Z,16.87
2023-03-06T22:06:43.529Z,16.97
2023-03-06T22:09:12.843Z,17.07
2023-03-06T22:11:40.041Z,16.03
2023-03-06T22:14:07.454Z,17.97
2023-03-06T22:16:34.840Z,16.37
2023-03-06T22:19:02.269Z,16.47
2023-03-06T22:21:29.470Z,15.50
2023-03-06T22:23:57.680Z,17.73
2023-03-06T22:26:26.843Z,16.87
2023-03-06T22:28:54.222Z,16.90
2023-03-06T22:31:24.113Z,16.70
2023-03-06T22:33:56.151Z,16.47
2023-03-06T22:36:24.135Z,17.57
2023-03-06T22:38:56.044Z,19.13
2023-03-06T22:41:23.740Z,17.53
2023-03-06T22:43:51.128Z,16.27
2023-03-06T22:46:18.867Z,17.70
2023-03-06T22:48:46.445Z,17.80
2023-03-06T22:51:16.891Z,17.97
2023-03-06T22:53:44.853Z,17.93
2023-03-06T22:56:14.921Z,17.87
2023-03-06T22:58:44.705Z,18.40
2023-03-06T23:01:24.567Z,15.97
2023-03-06T23:03:54.321Z,17.70
2023-03-06T23:06:33.290Z,20.80
2023-03-06T23:09:12.735Z,18.50
2023-03-06T23:11:59.336Z,16.60
2023-03-06T23:14:49.527Z,18.47
2023-03-06T23:17:35.877Z,19.60
2023-03-06T23:20:21.881Z,18.43
2023-03-06T23:23:07.746Z,16.40
2023-03-06T23:25:44.397Z,18.47
2023-03-06T23:28:12.519Z,17.63
2023-03-06T23:30:40.017Z,19.70
2023-03-06T23:33:08.077Z,15.73
2023-03-06T23:35:36.713Z,18.87
2023-03-06T23:38:04.323Z,19.20
2023-03-06T23:40:33.530Z,19.23
2023-03-06T23:43:02.529Z,17.17
2023-03-06T23:45:30.140Z,17.30
2023-03-06T23:47:58.878Z,14.70
2023-03-06T23:50:26.291Z,17.73
2023-03-06T23:52:54.569Z,19.83
2023-03-06T23:55:22.190Z,17.37
2023-03-06T23:57:49.390Z,15.63
